Time;durP1;ratioP1;P1;durP2;ratioP2;P2;SDS_P1;SDS_P2;PMS_P1;PMS_P2;Temp;Humidity;BMP_temperature;BMP_pressure;BME280_temperature;BME280_humidity;BME280_pressure;Samples;Min_cycle;Max_cycle;Signal;HPM_P1;HPM_P2
2023/06/13 00:00:44;;;;;;;13.00;7.68;;;;;;;20.36;100.00;101240.28;5205125;28;20036;-70
2023/06/13 00:03:14;;;;;;;11.48;7.85;;;;;;;20.32;100.00;101240.94;5205206;28;20014;-70
2023/06/13 00:05:46;;;;;;;16.23;7.50;;;;;;;20.28;100.00;101237.00;5204450;28;20028;-70
2023/06/13 00:08:18;;;;;;;13.98;7.75;;;;;;;20.25;100.00;101238.28;5204483;28;20120;-70
2023/06/13 00:10:48;;;;;;;11.10;7.50;;;;;;;20.21;100.00;101237.06;5204939;28;20029;-70
2023/06/13 00:13:19;;;;;;;13.02;8.00;;;;;;;20.18;100.00;101232.03;5204946;28;20026;-70
2023/06/13 00:15:52;;;;;;;12.27;8.50;;;;;;;20.14;100.00;101230.84;5204415;28;20576;-70
2023/06/13 00:18:23;;;;;;;12.38;7.70;;;;;;;20.05;100.00;101232.16;5204524;28;20488;-70
2023/06/13 00:20:54;;;;;;;11.55;8.23;;;;;;;19.99;100.00;101228.41;5204575;28;20029;-70
2023/06/13 00:23:26;;;;;;;13.73;8.55;;;;;;;19.95;100.00;101227.19;5204478;28;20037;-70
2023/06/13 00:25:57;;;;;;;19.45;8.23;;;;;;;19.95;100.00;101229.06;5204100;28;20159;-70
2023/06/13 00:28:27;;;;;;;16.02;8.45;;;;;;;19.92;100.00;101224.88;5204541;28;20107;-70
2023/06/13 00:30:58;;;;;;;14.15;8.50;;;;;;;19.91;100.00;101225.94;5204362;28;20478;-70
2023/06/13 00:33:31;;;;;;;16.08;8.95;;;;;;;19.91;100.00;101220.50;5204824;28;20049;-70
2023/06/13 00:36:01;;;;;;;16.13;8.40;;;;;;;19.89;100.00;101220.72;5203813;28;20022;-70
2023/06/13 00:38:33;;;;;;;12.55;7.70;;;;;;;19.83;100.00;101220.72;5204279;28;20549;-70
2023/06/13 00:41:03;;;;;;;13.63;7.32;;;;;;;19.80;100.00;101222.03;5204384;28;20060;-70
2023/06/13 00:43:34;;;;;;;15.73;7.55;;;;;;;19.76;100.00;101218.06;5204170;28;20116;-70
2023/06/13 00:46:05;;;;;;;14.35;8.30;;;;;;;19.74;100.00;101227.50;5203721;28;20037;-70
2023/06/13 00:48:37;;;;;;;13.70;8.07;;;;;;;19.72;100.00;101226.88;5204029;28;20556;-70
2023/06/13 00:51:09;;;;;;;14.38;8.20;;;;;;;19.72;100.00;101230.44;5204240;28;20147;-70
2023/06/13 00:53:40;;;;;;;12.95;7.32;;;;;;;19.72;100.00;101222.25;5204209;28;20079;-70
2023/06/13 00:56:10;;;;;;;12.05;7.43;;;;;;;19.70;100.00;101227.09;5203343;28;20029;-70
2023/06/13 00:58:41;;;;;;;15.30;8.13;;;;;;;19.66;100.00;101223.97;5203863;28;20070;-70
2023/06/13 01:01:12;;;;;;;16.25;8.88;;;;;;;19.63;100.00;101220.88;5204281;28;20394;-69
2023/06/13 01:03:45;;;;;;;12.23;7.85;;;;;;;19.57;100.00;101222.50;5204371;28;20028;-70
2023/06/13 01:06:16;;;;;;;16.63;8.52;;;;;;;19.56;100.00;101217.28;5203652;28;20483;-69
2023/06/13 01:08:47;;;;;;;12.93;7.93;;;;;;;19.52;100.00;101221.50;5204093;28;20029;-69
2023/06/13 01:11:35;;;;;;;15.10;7.82;;;;;;;19.48;100.00;101215.69;5203921;28;20026;-69
2023/06/13 01:14:09;;;;;;;14.93;8.55;;;;;;;19.40;100.00;101208.56;5204233;28;20491;-69
2023/06/13 01:16:45;;;;;;;13.68;7.82;;;;;;;19.34;100.00;101200.44;5203368;28;20379;-69
2023/06/13 01:19:38;;;;;;;11.75;7.78;;;;;;;19.26;100.00;101204.22;5203777;28;20048;-70
2023/06/13 01:22:15;;;;;;;12.45;7.53;;;;;;;19.19;100.00;101208.88;5211346;28;20145;-69
2023/06/13 01:25:13;;;;;;;16.20;8.88;;;;;;;19.18;100.00;101207.22;5203694;28;20368;-70
2023/06/13 01:27:45;;;;;;;15.85;8.32;;;;;;;19.15;100.00;101204.91;5203119;28;20475;-70
2023/06/13 01:30:18;;;;;;;14.05;7.93;;;;;;;19.13;100.00;101210.56;5203788;28;20025;-70
2023/06/13 01:32:51;;;;;;;13.00;7.53;;;;;;;19.08;100.00;101215.81;5203648;28;20552;-70
2023/06/13 01:35:22;;;;;;;15.85;8.00;;;;;;;19.05;100.00;101207.25;5203440;28;20025;-70
2023/06/13 01:37:52;;;;;;;14.85;8.48;;;;;;;18.98;100.00;101207.25;5216153;28;20025;-70
2023/06/13 01:40:22;;;;;;;12.27;8.18;;;;;;;18.95;100.00;101204.97;5203525;28;20113;-70
2023/06/13 01:42:53;;;;;;;13.57;8.57;;;;;;;18.91;100.00;101213.75;5203536;28;20017;-69
2023/06/13 01:45:24;;;;;;;13.23;8.60;;;;;;;18.88;100.00;101218.56;5203219;28;20036;-69
2023/06/13 01:48:08;;;;;;;15.23;8.07;;;;;;;18.84;100.00;101209.16;5202943;28;20021;-69
2023/06/13 01:51:12;;;;;;;14.48;8.30;;;;;;;18.83;100.00;101212.09;5203146;28;20109;-69
2023/06/13 01:53:52;;;;;;;12.75;8.38;;;;;;;18.79;100.00;101210.84;5203363;28;20022;-69
2023/06/13 01:56:32;;;;;;;14.60;7.88;;;;;;;18.74;100.00;101216.91;5203289;28;20107;-69
2023/06/13 01:59:13;;;;;;;15.50;8.05;;;;;;;18.68;100.00;101212.34;5202412;28;20026;-69
2023/06/13 02:01:45;;;;;;;14.55;8.13;;;;;;;18.66;100.00;101203.50;5203023;28;20017;-69
2023/06/13 02:04:16;;;;;;;15.13;9.07;;;;;;;18.66;100.00;101216.25;5203180;28;20025;-69
2023/06/13 02:06:52;;;;;;;14.98;8.65;;;;;;;18.65;100.00;101207.28;5202141;28;20092;-69
2023/06/13 02:09:23;;;;;;;17.50;7.95;;;;;;;18.64;100.00;101202.91;5203199;28;20108;-69
2023/06/13 02:11:54;;;;;;;15.45;8.80;;;;;;;18.62;100.00;101210.41;5202866;28;20025;-70
2023/06/13 02:14:24;;;;;;;14.80;8.52;;;;;;;18.59;100.00;101208.13;5203100;28;20029;-70
2023/06/13 02:16:57;;;;;;;16.17;7.60;;;;;;;18.53;100.00;101207.09;5202161;28;20013;-70
2023/06/13 02:19:28;;;;;;;16.30;8.43;;;;;;;18.48;100.00;101211.47;5202709;28;20026;-69
2023/06/13 02:21:58;;;;;;;14.20;8.15;;;;;;;18.42;100.00;101209.59;5202383;28;20028;-69
2023/06/13 02:24:29;;;;;;;12.25;8.30;;;;;;;18.34;100.00;101199.78;5202925;28;20032;-69
2023/06/13 02:27:00;;;;;;;18.15;8.55;;;;;;;18.31;100.00;101206.44;5202521;28;20028;-69
2023/06/13 02:29:31;;;;;;;12.55;7.55;;;;;;;18.25;100.00;101199.13;5202919;28;20497;-69
2023/06/13 02:32:01;;;;;;;15.48;8.82;;;;;;;18.19;100.00;101199.97;5202777;28;20083;-69
2023/06/13 02:34:32;;;;;;;11.57;7.97;;;;;;;18.14;100.00;101198.94;5202792;28;20017;-69
2023/06/13 02:37:02;;;;;;;17.83;8.63;;;;;;;18.10;100.00;101196.63;5202427;28;20437;-69
2023/06/13 02:39:33;;;;;;;16.70;8.63;;;;;;;18.04;100.00;101200.16;5202875;28;20100;-69
2023/06/13 02:42:04;;;;;;;11.65;7.78;;;;;;;18.01;100.00;101202.44;5202828;28;20057;-69
2023/06/13 02:44:34;;;;;;;13.00;8.10;;;;;;;17.97;100.00;101203.91;5202559;28;20422;-69
2023/06/13 02:47:05;;;;;;;29.23;8.82;;;;;;;17.92;100.00;101203.69;5201946;28;20030;-69
2023/06/13 02:49:36;;;;;;;14.15;8.27;;;;;;;17.87;100.00;101204.28;5202791;28;20064;-69
2023/06/13 02:52:07;;;;;;;14.00;8.60;;;;;;;17.81;100.00;101200.53;5202754;28;20021;-69
2023/06/13 02:54:37;;;;;;;14.65;8.48;;;;;;;17.76;100.00;101204.91;5202866;28;20390;-69
2023/06/13 02:57:09;;;;;;;12.07;7.95;;;;;;;17.71;100.00;101201.94;5202000;28;20021;-69
2023/06/13 02:59:39;;;;;;;16.13;8.10;;;;;;;17.68;100.00;101200.47;5202815;28;20044;-69
2023/06/13 03:02:10;;;;;;;14.07;7.65;;;;;;;17.68;100.00;101200.47;5202521;28;20022;-69
2023/06/13 03:04:40;;;;;;;14.38;7.60;;;;;;;17.66;100.00;101202.53;5202737;28;20080;-69
2023/06/13 03:07:16;;;;;;;12.05;7.55;;;;;;;17.67;100.00;101203.38;5201760;28;20096;-69
2023/06/13 03:09:46;;;;;;;14.88;8.05;;;;;;;17.64;100.00;101207.34;5202563;28;20482;-70
2023/06/13 03:12:17;;;;;;;15.00;8.07;;;;;;;17.63;100.00;101208.41;5205952;28;20024;-70
2023/06/13 03:14:47;;;;;;;14.40;7.82;;;;;;;17.60;100.00;101217.75;5206500;28;20025;-70
2023/06/13 03:17:18;;;;;;;14.70;8.02;;;;;;;17.57;100.00;101211.91;5205632;28;20526;-70
2023/06/13 03:19:49;;;;;;;13.27;7.97;;;;;;;17.54;100.00;101218.59;5205878;28;20029;-70
2023/06/13 03:22:20;;;;;;;16.33;8.18;;;;;;;17.52;100.00;101219.81;5205711;28;20033;-70
2023/06/13 03:24:52;;;;;;;12.98;8.45;;;;;;;17.49;100.00;101221.06;5206186;28;20021;-70
2023/06/13 03:27:22;;;;;;;13.60;8.23;;;;;;;17.48;100.00;101219.41;5205577;28;20368;-70
2023/06/13 03:29:52;;;;;;;18.33;8.15;;;;;;;17.45;100.00;101213.53;5205180;28;20028;-70
2023/06/13 03:32:23;;;;;;;15.43;7.68;;;;;;;17.45;100.00;101202.69;5204731;28;20391;-69
2023/06/13 03:34:54;;;;;;;15.70;7.95;;;;;;;17.44;100.00;101212.69;5205977;28;20026;-70
2023/06/13 03:37:24;;;;;;;18.00;7.70;;;;;;;17.44;100.00;101210.00;5205377;28;20022;-69
2023/06/13 03:39:54;;;;;;;13.57;7.95;;;;;;;17.43;100.00;101202.06;5206109;28;20547;-69
2023/06/13 03:42:25;;;;;;;12.57;8.00;;;;;;;17.44;100.00;101211.88;5205737;28;20379;-69
2023/06/13 03:44:55;;;;;;;12.57;7.38;;;;;;;17.43;100.00;101207.50;5205906;28;20301;-70
2023/06/13 03:47:26;;;;;;;16.42;8.05;;;;;;;17.39;100.00;101204.34;5204795;28;20104;-69
2023/06/13 03:49:56;;;;;;;17.52;7.45;;;;;;;17.39;100.00;101207.06;5205885;28;20555;-69
2023/06/13 03:52:27;;;;;;;21.20;8.15;;;;;;;17.35;100.00;101206.59;5205655;28;20052;-70
2023/06/13 03:54:57;;;;;;;11.65;7.05;;;;;;;17.34;100.00;101207.66;5206050;28;20112;-69
2023/06/13 03:57:31;;;;;;;14.77;7.60;;;;;;;17.31;100.00;101202.63;5204563;28;20494;-69
2023/06/13 04:00:04;;;;;;;10.38;6.90;;;;;;;17.30;100.00;101213.69;5205730;28;20501;-69
2023/06/13 04:02:35;;;;;;;13.50;7.28;;;;;;;17.30;100.00;101216.41;5205400;28;20049;-69
2023/06/13 04:05:07;;;;;;;15.32;7.45;;;;;;;17.32;100.00;101217.03;5205466;28;20109;-70
2023/06/13 04:07:37;;;;;;;13.88;7.45;;;;;;;17.34;100.00;101223.09;5204717;28;20018;-69
2023/06/13 04:10:08;;;;;;;12.27;6.68;;;;;;;17.35;100.00;101219.34;5205298;28;20033;-69
2023/06/13 04:12:38;;;;;;;15.18;7.10;;;;;;;17.38;100.00;101226.25;5205358;28;20014;-69
2023/06/13 04:15:09;;;;;;;16.85;8.02;;;;;;;17.41;100.00;101229.38;5205361;28;20108;-70
2023/06/13 04:17:40;;;;;;;11.52;6.78;;;;;;;17.40;100.00;101221.44;5204594;28;20079;-69
2023/06/13 04:20:10;;;;;;;18.13;7.18;;;;;;;17.42;100.00;101235.63;5204746;28;20040;-69
2023/06/13 04:22:42;;;;;;;13.77;6.78;;;;;;;17.43;100.00;101237.31;5204590;28;20025;-69
2023/06/13 04:25:13;;;;;;;13.70;6.88;;;;;;;17.43;100.00;101230.03;5192202;28;20383;-69
2023/06/13 04:27:44;;;;;;;14.57;7.35;;;;;;;17.48;100.00;101230.25;5204487;28;20036;-70
2023/06/13 04:30:15;;;;;;;14.25;7.82;;;;;;;17.50;100.00;101240.88;5205264;28;20208;-70
2023/06/13 04:32:46;;;;;;;14.43;7.10;;;;;;;17.53;100.00;101232.38;5204639;28;20508;-70
2023/06/13 04:35:17;;;;;;;16.25;7.00;;;;;;;17.56;100.00;101240.06;5204941;28;20021;-70
2023/06/13 04:37:48;;;;;;;15.35;7.05;;;;;;;17.59;100.00;101237.81;5204546;28;20025;-69
2023/06/13 04:40:19;;;;;;;14.00;7.45;;;;;;;17.64;100.00;101237.19;5204910;28;20048;-70
2023/06/13 04:42:51;;;;;;;14.82;6.78;;;;;;;17.68;100.00;101237.63;5204684;28;20029;-70
2023/06/13 04:45:21;;;;;;;12.15;6.57;;;;;;;17.73;100.00;101238.72;5204357;28;20035;-70
2023/06/13 04:47:57;;;;;;;12.73;7.30;;;;;;;17.80;100.00;101241.44;5204082;28;20022;-70
2023/06/13 04:50:28;;;;;;;17.08;6.55;;;;;;;17.83;100.00;101250.03;5204555;28;20532;-70
2023/06/13 04:52:59;;;;;;;13.15;6.50;;;;;;;17.91;100.00;101245.44;5204596;28;20072;-70
2023/06/13 04:55:32;;;;;;;17.98;6.88;;;;;;;17.99;100.00;101239.84;5204312;28;20049;-70
2023/06/13 04:58:03;;;;;;;12.40;6.47;;;;;;;18.07;100.00;101255.91;5204087;28;20025;-70
2023/06/13 05:00:34;;;;;;;13.93;7.47;;;;;;;18.11;100.00;101249.03;5204276;28;20036;-70
2023/06/13 05:03:04;;;;;;;17.42;6.97;;;;;;;18.17;100.00;101256.34;5203223;28;20502;-70
2023/06/13 05:05:35;;;;;;;14.70;5.80;;;;;;;18.23;100.00;101257.44;5203946;28;20033;-70
2023/06/13 05:08:07;;;;;;;13.32;6.20;;;;;;;18.31;100.00;101263.47;5203824;28;20060;-70
2023/06/13 05:10:37;;;;;;;11.13;6.70;;;;;;;18.43;100.00;101254.75;5204029;28;20471;-70
2023/06/13 05:13:08;;;;;;;14.80;5.88;;;;;;;18.50;100.00;101263.72;5204104;28;20031;-70
2023/06/13 05:15:39;;;;;;;9.02;5.90;;;;;;;18.57;100.00;101256.38;5203894;28;20108;-70
2023/06/13 05:18:12;;;;;;;15.60;5.95;;;;;;;18.64;100.00;101262.69;5196440;28;20491;-70
2023/06/13 05:20:43;;;;;;;9.93;5.93;;;;;;;18.72;100.00;101258.94;5207770;28;20025;-71
2023/06/13 05:23:15;;;;;;;13.30;6.18;;;;;;;18.79;100.00;101266.03;5203968;28;20075;-70
2023/06/13 05:25:46;;;;;;;14.60;6.57;;;;;;;18.87;100.00;101265.81;5198654;28;20479;-70
2023/06/13 05:28:17;;;;;;;10.57;6.18;;;;;;;18.93;100.00;101266.03;5203322;28;20079;-71
2023/06/13 05:30:48;;;;;;;12.93;5.95;;;;;;;19.03;100.00;101271.88;5203700;28;20024;-71
2023/06/13 05:33:18;;;;;;;10.75;5.78;;;;;;;19.11;100.00;101274.34;5202622;28;20025;-70
2023/06/13 05:35:49;;;;;;;11.93;5.70;;;;;;;19.28;100.00;101274.75;5203199;28;20057;-71
2023/06/13 05:38:20;;;;;;;9.70;5.57;;;;;;;19.40;100.00;101282.03;5203575;28;20033;-71
2023/06/13 05:40:50;;;;;;;10.50;5.90;;;;;;;19.49;100.00;101284.53;5203777;28;20028;-70
2023/06/13 05:43:21;;;;;;;13.40;5.93;;;;;;;19.61;100.00;101283.66;5203852;28;20029;-71
2023/06/13 05:45:51;;;;;;;15.90;5.63;;;;;;;19.73;100.00;101291.16;5202800;28;20032;-71
2023/06/13 05:48:22;;;;;;;13.70;6.40;;;;;;;19.84;100.00;101291.31;5203429;28;20094;-70
2023/06/13 05:50:52;;;;;;;10.27;6.07;;;;;;;19.96;100.00;101287.91;5203545;28;20060;-71
2023/06/13 05:53:23;;;;;;;19.20;6.50;;;;;;;20.14;100.00;101296.19;5203800;28;20383;-71
2023/06/13 05:55:53;;;;;;;9.80;6.00;;;;;;;20.28;100.00;101292.34;5203024;28;20028;-71
2023/06/13 05:58:24;;;;;;;12.45;6.05;;;;;;;20.55;100.00;101292.19;5202858;28;20112;-71
2023/06/13 06:00:57;;;;;;;11.35;5.22;;;;;;;21.05;100.00;101292.16;5202225;28;20025;-71
2023/06/13 06:03:28;;;;;;;12.77;5.45;;;;;;;21.82;100.00;101301.59;5202798;28;20469;-71
2023/06/13 06:05:58;;;;;;;22.55;6.07;;;;;;;22.64;100.00;101307.41;5202624;28;20047;-71
2023/06/13 06:08:29;;;;;;;9.65;5.40;;;;;;;23.16;100.00;101298.53;5202237;28;20128;-71
2023/06/13 06:10:59;;;;;;;10.18;5.20;;;;;;;23.74;100.00;101306.66;5202848;28;20036;-71
2023/06/13 06:13:30;;;;;;;12.57;5.88;;;;;;;24.27;100.00;101310.19;5202611;28;20021;-71
2023/06/13 06:16:00;;;;;;;18.65;5.68;;;;;;;24.62;94.16;101306.44;5202399;28;20059;-71
2023/06/13 06:18:31;;;;;;;10.43;5.40;;;;;;;24.82;90.12;101301.28;5202548;28;20170;-71
2023/06/13 06:21:02;;;;;;;12.75;5.25;;;;;;;25.05;93.79;101300.25;5202350;28;20491;-72
2023/06/13 06:23:32;;;;;;;10.40;5.70;;;;;;;25.44;89.64;101301.13;5202174;28;20029;-72
2023/06/13 06:26:03;;;;;;;15.40;5.70;;;;;;;25.66;90.45;101298.41;5202377;28;20032;-71
2023/06/13 06:28:33;;;;;;;8.60;5.50;;;;;;;25.93;81.91;101303.97;5202671;28;20030;-71
2023/06/13 06:31:05;;;;;;;10.40;5.50;;;;;;;26.02;79.10;101296.91;5202574;28;20057;-71
2023/06/13 06:33:35;;;;;;;12.18;6.15;;;;;;;26.14;80.54;101299.50;5202399;28;20045;-71
2023/06/13 06:36:06;;;;;;;14.57;6.07;;;;;;;26.35;75.84;101295.03;5202227;28;20394;-71
2023/06/13 06:38:36;;;;;;;7.90;5.43;;;;;;;26.33;73.18;101297.22;5202520;28;20030;-72
2023/06/13 06:41:07;;;;;;;10.70;5.63;;;;;;;26.58;80.27;101293.91;5207235;28;20021;-71
2023/06/13 06:43:37;;;;;;;16.13;6.03;;;;;;;26.71;81.40;101298.13;5210981;28;20042;-71
2023/06/13 06:46:08;;;;;;;10.85;6.10;;;;;;;26.98;77.70;101295.31;5205119;28;20028;-71
2023/06/13 06:48:39;;;;;;;8.38;4.90;;;;;;;27.33;73.19;101294.75;5206445;28;20032;-72
2023/06/13 06:51:10;;;;;;;10.10;5.45;;;;;;;27.60;71.93;101292.66;5206810;28;20025;-72
2023/06/13 06:53:42;;;;;;;8.82;5.80;;;;;;;27.76;75.11;101296.34;5206550;28;20494;-72
2023/06/13 06:56:13;;;;;;;7.80;5.20;;;;;;;28.03;73.54;101290.63;5215793;28;20394;-72
2023/06/13 06:58:44;;;;;;;9.77;5.70;;;;;;;28.24;71.12;101290.66;5211405;28;20040;-71
2023/06/13 07:01:15;;;;;;;7.38;5.30;;;;;;;28.47;66.34;101292.13;5207721;28;20487;-71
2023/06/13 07:03:46;;;;;;;12.50;5.55;;;;;;;28.57;59.70;101284.66;5207531;28;20032;-72
2023/06/13 07:06:16;;;;;;;10.27;5.50;;;;;;;28.56;61.49;101285.75;5207021;28;20685;-71
2023/06/13 07:08:47;;;;;;;11.35;6.32;;;;;;;28.45;57.33;101283.28;5207003;28;20030;-71
2023/06/13 07:11:18;;;;;;;10.20;5.57;;;;;;;28.54;65.35;101284.38;5206838;28;20060;-71
2023/06/13 07:13:48;;;;;;;10.68;5.45;;;;;;;28.60;60.42;101292.38;5207126;28;20029;-72
2023/06/13 07:16:18;;;;;;;14.85;5.82;;;;;;;28.86;63.36;101281.31;5206732;28;20033;-71
2023/06/13 07:18:50;;;;;;;7.65;5.05;;;;;;;29.10;62.56;101285.16;5207069;28;20098;-72
2023/06/13 07:21:20;;;;;;;9.50;5.53;;;;;;;29.31;56.53;101282.34;5206763;28;20017;-74
2023/06/13 07:23:51;;;;;;;9.10;5.70;;;;;;;29.31;53.31;101287.88;5206701;28;20459;-71
2023/06/13 07:26:22;;;;;;;9.02;5.07;;;;;;;29.49;59.33;101284.50;5205524;28;20032;-72
2023/06/13 07:28:52;;;;;;;11.70;5.60;;;;;;;29.53;55.28;101288.38;5216816;28;20029;-72
2023/06/13 07:31:23;;;;;;;9.27;5.68;;;;;;;29.80;59.74;101293.50;5208509;28;20391;-72
2023/06/13 07:33:54;;;;;;;8.38;5.18;;;;;;;29.85;51.13;101292.66;5205763;28;20024;-72
2023/06/13 07:36:24;;;;;;;9.95;5.38;;;;;;;30.02;50.00;101295.03;5218400;28;20029;-72
2023/06/13 07:38:55;;;;;;;11.52;5.72;;;;;;;30.06;52.32;101293.38;5205706;28;20026;-72
2023/06/13 07:41:26;;;;;;;10.30;5.15;;;;;;;29.99;52.18;101299.22;5205464;28;20041;-72
2023/06/13 07:43:56;;;;;;;9.88;5.20;;;;;;;30.07;50.37;101298.63;5205449;28;20032;-72
2023/06/13 07:46:27;;;;;;;10.65;5.28;;;;;;;30.21;48.33;101298.00;5213188;28;20021;-72
2023/06/13 07:48:58;;;;;;;13.10;5.32;;;;;;;30.40;56.19;101293.44;5208781;28;20045;-72
2023/06/13 07:51:28;;;;;;;11.13;5.82;;;;;;;30.47;51.96;101295.88;5205584;28;20017;-72
2023/06/13 07:53:59;;;;;;;11.55;5.50;;;;;;;30.65;49.37;101289.66;5205323;28;20024;-72
2023/06/13 07:56:30;;;;;;;18.02;6.03;;;;;;;30.85;47.32;101288.66;5203999;28;20107;-72
2023/06/13 07:59:00;;;;;;;10.27;5.50;;;;;;;30.97;50.53;101280.78;5204839;28;20108;-72
2023/06/13 08:01:31;;;;;;;9.35;5.55;;;;;;;31.08;50.11;101284.28;5205553;28;20029;-72
2023/06/13 08:04:01;;;;;;;11.05;5.38;;;;;;;31.10;44.50;101282.03;5205260;28;20593;-72
2023/06/13 08:06:32;;;;;;;7.40;5.60;;;;;;;31.11;44.20;101283.69;5204660;28;20026;-73
2023/06/13 08:09:04;;;;;;;9.77;5.57;;;;;;;31.33;47.22;101277.66;5205404;28;20071;-72
2023/06/13 08:11:35;;;;;;;11.48;4.82;;;;;;;31.70;47.53;101274.97;5204538;28;20521;-72
2023/06/13 08:14:08;;;;;;;10.55;5.25;;;;;;;31.79;43.35;101274.31;5205112;28;20060;-72
2023/06/13 08:16:39;;;;;;;12.20;5.78;;;;;;;31.59;40.86;101281.78;5204452;28;20061;-72
2023/06/13 08:19:10;;;;;;;10.50;5.50;;;;;;;31.46;43.13;101280.53;5205017;28;20475;-72
2023/06/13 08:21:40;;;;;;;10.98;6.28;;;;;;;31.57;44.57;101269.31;5204876;28;20036;-72
2023/06/13 08:24:11;;;;;;;12.75;5.40;;;;;;;31.65;43.50;101269.47;5204511;28;20083;-72
2023/06/13 08:26:41;;;;;;;8.20;5.80;;;;;;;31.57;44.55;101267.34;5204229;28;20032;-72
2023/06/13 08:29:13;;;;;;;8.95;5.63;;;;;;;31.72;48.86;101275.47;5204867;28;20360;-73
2023/06/13 08:31:44;;;;;;;13.38;5.63;;;;;;;32.11;44.40;101277.19;5205006;28;20032;-72
2023/06/13 08:34:14;;;;;;;9.60;5.40;;;;;;;32.17;47.31;101270.41;5204702;28;20386;-72
2023/06/13 08:36:45;;;;;;;7.15;4.70;;;;;;;32.17;42.96;101270.41;5203442;28;20040;-72
2023/06/13 08:39:15;;;;;;;6.78;5.10;;;;;;;32.35;41.35;101276.28;5203466;28;20067;-73
2023/06/13 08:41:48;;;;;;;8.10;5.03;;;;;;;32.35;45.24;101267.94;5203319;28;20017;-73
2023/06/13 08:44:20;;;;;;;13.52;5.45;;;;;;;32.41;38.93;101278.69;5204113;28;20160;-72
2023/06/13 08:46:51;;;;;;;14.63;5.85;;;;;;;32.29;37.72;101263.59;5202572;28;20143;-73
2023/06/13 08:49:21;;;;;;;13.50;5.65;;;;;;;32.23;41.35;101266.47;5200648;28;20686;-72
2023/06/13 08:51:54;;;;;;;8.25;5.45;;;;;;;32.55;42.79;101281.50;5202718;28;20036;-72
2023/06/13 08:54:26;;;;;;;11.38;6.00;;;;;;;32.84;41.15;101269.34;5204066;28;20018;-72
2023/06/13 08:57:00;;;;;;;12.73;6.00;;;;;;;32.64;38.56;101265.81;5203425;28;20029;-72
2023/06/13 08:59:35;;;;;;;11.70;5.70;;;;;;;32.46;38.68;101261.94;5203515;28;20030;-72
2023/06/13 09:02:06;;;;;;;11.45;5.32;;;;;;;32.39;35.97;101263.47;5203655;28;20108;-72
2023/06/13 09:04:38;;;;;;;9.50;5.55;;;;;;;32.32;37.38;101261.03;5203879;28;20677;-72
2023/06/13 09:07:10;;;;;;;9.25;5.47;;;;;;;32.34;35.91;101269.06;5203198;28;20032;-72
2023/06/13 09:09:42;;;;;;;9.80;5.40;;;;;;;31.92;35.68;101265.25;5203825;28;20028;-72
2023/06/13 09:12:13;;;;;;;10.10;5.32;;;;;;;31.73;35.65;101256.91;5202549;28;20053;-72
2023/06/13 09:14:45;;;;;;;10.63;4.90;;;;;;;31.90;39.31;101264.75;5203706;28;20025;-72
2023/06/13 09:17:16;;;;;;;10.68;5.68;;;;;;;32.03;35.71;101252.91;5203264;28;20502;-72
2023/06/13 09:19:47;;;;;;;8.10;5.28;;;;;;;32.16;38.91;101252.13;5203579;28;20029;-72
2023/06/13 09:22:18;;;;;;;11.57;5.78;;;;;;;32.53;37.78;101255.97;5203215;28;20072;-72
2023/06/13 09:24:50;;;;;;;11.68;5.32;;;;;;;32.79;37.17;101258.34;5203239;28;20626;-72
2023/06/13 09:27:21;;;;;;;8.85;5.13;;;;;;;32.81;36.80;101254.09;5203128;28;20117;-72
2023/06/13 09:29:51;;;;;;;10.95;5.03;;;;;;;32.91;34.63;101261.47;5203548;28;20032;-72
2023/06/13 09:32:22;;;;;;;8.23;4.85;;;;;;;32.76;35.48;101251.41;5203836;28;20021;-72
2023/06/13 09:34:53;;;;;;;8.05;4.75;;;;;;;32.68;36.62;101254.88;5203040;28;20033;-72
2023/06/13 09:37:25;;;;;;;10.80;5.63;;;;;;;32.70;34.99;101252.66;5201382;28;20053;-72
2023/06/13 09:40:05;;;;;;;18.92;5.18;;;;;;;32.47;33.85;101249.69;5203517;28;20014;-72
2023/06/13 09:42:35;;;;;;;12.35;5.43;;;;;;;32.48;33.65;101254.16;5203525;28;20030;-72
2023/06/13 09:45:08;;;;;;;6.45;5.45;;;;;;;32.55;33.80;101245.41;5203344;28;20395;-72
2023/06/13 09:47:41;;;;;;;8.38;4.75;;;;;;;32.64;37.06;101245.53;5202248;28;20449;-72
2023/06/13 09:50:11;;;;;;;11.13;5.63;;;;;;;32.53;35.92;101247.66;5203099;28;20021;-72
2023/06/13 09:52:43;;;;;;;9.95;5.35;;;;;;;32.47;35.42;101241.38;5203201;28;20028;-72
2023/06/13 09:55:14;;;;;;;6.88;4.78;;;;;;;32.55;37.83;101236.25;5202723;28;20024;-72
2023/06/13 09:57:44;;;;;;;7.20;4.95;;;;;;;32.84;36.97;101236.84;5202183;28;20683;-72
2023/06/13 10:00:15;;;;;;;11.45;5.35;;;;;;;32.82;33.71;101246.59;5202660;28;20104;-72
2023/06/13 10:02:46;;;;;;;6.40;4.93;;;;;;;32.78;32.79;101234.44;5202850;28;20136;-72
2023/06/13 10:05:17;;;;;;;8.85;5.75;;;;;;;32.60;32.02;101239.78;5202505;28;20037;-72
2023/06/13 10:07:48;;;;;;;10.02;5.53;;;;;;;32.06;36.63;101229.25;5202516;28;20726;-72
2023/06/13 10:10:18;;;;;;;6.88;4.80;;;;;;;31.73;38.61;101231.97;5206096;28;20029;-72
2023/06/13 10:12:54;;;;;;;6.90;5.03;;;;;;;31.74;34.96;101232.78;5211975;28;20017;-72
2023/06/13 10:15:44;;;;;;;12.88;5.30;;;;;;;31.90;33.44;101237.81;5194708;28;20060;-72
2023/06/13 10:18:20;;;;;;;6.63;5.45;;;;;;;31.55;35.44;101236.34;5205033;28;20017;-72
2023/06/13 10:20:54;;;;;;;8.07;5.28;;;;;;;31.60;35.25;101227.13;5208688;28;20029;-72
2023/06/13 10:23:28;;;;;;;11.52;5.32;;;;;;;31.94;39.41;101213.91;5201516;28;20029;-72
2023/06/13 10:26:03;;;;;;;;;;;;;;;32.22;35.18;101233.44;5211832;28;20059;-72
2023/06/13 10:28:46;;;;;;;13.25;5.43;;;;;;;32.26;33.04;101228.13;5206921;28;20682;-72
2023/06/13 10:31:54;;;;;;;13.32;5.72;;;;;;;32.46;35.64;101228.63;5206432;28;20108;-72
2023/06/13 10:34:39;;;;;;;10.55;5.47;;;;;;;32.27;32.51;101224.19;5200627;28;20087;-72
2023/06/13 10:37:10;;;;;;;8.65;5.22;;;;;;;32.30;34.42;101218.88;5206007;28;20104;-72
2023/06/13 10:39:54;;;;;;;9.35;5.03;;;;;;;32.30;31.83;101218.06;5205135;28;20116;-72
2023/06/13 10:42:36;;;;;;;13.27;5.47;;;;;;;32.00;31.52;101217.41;5207550;28;20013;-72
2023/06/13 10:45:13;;;;;;;8.43;5.38;;;;;;;31.94;33.91;101222.22;5208077;28;20025;-72
2023/06/13 10:47:43;;;;;;;12.40;5.50;;;;;;;32.15;34.25;101213.59;5207846;28;20017;-72
2023/06/13 10:50:15;;;;;;;7.10;5.55;;;;;;;31.78;37.33;101217.16;5209849;28;20026;-72
2023/06/13 10:52:48;;;;;;;7.70;5.40;;;;;;;31.71;36.14;101218.38;5206730;28;20724;-72
2023/06/13 10:55:38;;;;;;;10.35;5.35;;;;;;;32.03;34.63;101213.19;5201970;28;20387;-72
2023/06/13 10:58:12;;;;;;;10.32;6.03;;;;;;;32.29;36.20;101208.09;5206425;28;20021;-72
2023/06/13 11:00:44;;;;;;;7.97;5.18;;;;;;;32.28;32.16;101209.19;5207067;28;20029;-72
2023/06/13 11:03:16;;;;;;;10.90;5.50;;;;;;;32.05;33.39;101213.75;5210070;28;20029;-72
2023/06/13 11:05:49;;;;;;;6.57;5.07;;;;;;;31.83;34.63;101206.03;5209573;28;20108;-72
2023/06/13 11:08:21;;;;;;;13.52;5.75;;;;;;;32.07;36.70;101205.94;5197230;28;20017;-72
2023/06/13 11:10:53;;;;;;;8.45;5.72;;;;;;;32.01;33.12;101205.19;5211994;28;20055;-72
2023/06/13 11:13:26;;;;;;;9.82;5.75;;;;;;;31.76;32.50;101206.38;5204988;28;20029;-72
2023/06/13 11:16:15;;;;;;;11.30;5.88;;;;;;;31.80;35.10;101207.44;5212291;28;20032;-72
2023/06/13 11:18:47;;;;;;;10.43;5.70;;;;;;;31.35;37.19;101198.63;5208794;28;20017;-72
2023/06/13 11:21:18;;;;;;;10.02;5.82;;;;;;;31.37;35.22;101199.16;5201867;28;20021;-72
2023/06/13 11:23:54;;;;;;;12.60;5.93;;;;;;;31.67;34.15;101197.06;5209399;28;20033;-73
2023/06/13 11:26:25;;;;;;;7.32;5.57;;;;;;;32.03;36.07;101193.78;5202301;28;20075;-72
2023/06/13 11:28:56;;;;;;;8.68;4.82;;;;;;;31.90;33.42;101206.47;5212098;28;20025;-72
2023/06/13 11:31:28;;;;;;;10.52;5.38;;;;;;;31.70;33.23;101202.03;5205403;28;20032;-72
2023/06/13 11:34:03;;;;;;;14.85;6.55;;;;;;;31.80;32.42;101199.09;5207726;28;20022;-72
2023/06/13 11:36:37;;;;;;;7.72;5.45;;;;;;;31.84;33.09;101200.19;5204330;28;20029;-72